createdAt,value
2022-12-11T00:00:54.045Z,59.66
2022-12-11T00:03:21.375Z,59.88
2022-12-11T00:05:48.603Z,60.10
2022-12-11T00:08:15.962Z,59.98
2022-12-11T00:10:50.162Z,60.07
2022-12-11T00:13:17.533Z,60.03
2022-12-11T00:15:44.694Z,60.03
2022-12-11T00:18:14.792Z,60.56
2022-12-11T00:20:42.289Z,60.36
2022-12-11T00:23:09.537Z,60.86
2022-12-11T00:25:41.926Z,60.74
2022-12-11T00:28:09.126Z,60.97
2022-12-11T00:30:42.991Z,60.80
2022-12-11T00:33:12.049Z,60.89
2022-12-11T00:35:46.834Z,60.66
2022-12-11T00:38:21.094Z,60.64
2022-12-11T00:40:49.061Z,60.54
2022-12-11T00:43:17.008Z,60.88
2022-12-11T00:45:46.791Z,60.93
2022-12-11T00:48:14.426Z,60.81
2022-12-11T00:50:41.823Z,60.51
2022-12-11T00:53:09.230Z,60.50
2022-12-11T00:55:42.775Z,60.19
2022-12-11T00:58:12.054Z,60.67
2022-12-11T01:00:41.731Z,60.88
2022-12-11T01:03:09.634Z,60.63
2022-12-11T01:05:36.904Z,60.55
2022-12-11T01:08:04.523Z,60.60
2022-12-11T01:10:33.014Z,60.10
2022-12-11T01:13:06.831Z,60.10
2022-12-11T01:15:41.845Z,60.31
2022-12-11T01:18:12.053Z,59.84
2022-12-11T01:20:41.600Z,59.87
2022-12-11T01:23:12.199Z,59.83
2022-12-11T01:25:40.989Z,59.65
2022-12-11T01:28:09.585Z,59.02
2022-12-11T01:30:37.361Z,58.85
2022-12-11T01:33:04.671Z,58.76
2022-12-11T01:35:31.904Z,58.31
2022-12-11T01:37:59.260Z,58.48
2022-12-11T01:40:26.667Z,59.31
2022-12-11T01:42:53.878Z,59.44
2022-12-11T01:45:43.673Z,60.29
2022-12-11T01:48:27.410Z,60.23
2022-12-11T01:51:02.842Z,59.92
2022-12-11T01:53:36.638Z,59.60
2022-12-11T01:56:06.714Z,59.67
2022-12-11T01:58:42.528Z,59.56
2022-12-11T02:01:21.710Z,59.65
2022-12-11T02:03:50.579Z,59.58
2022-12-11T02:06:37.563Z,59.41
2022-12-11T02:09:14.224Z,59.88
2022-12-11T02:12:06.706Z,59.73
2022-12-11T02:15:11.573Z,58.97
2022-12-11T02:18:26.056Z,58.12
2022-12-11T02:21:23.761Z,57.58
2022-12-11T02:23:54.266Z,57.70
2022-12-11T02:26:42.657Z,57.72
2022-12-11T02:29:20.208Z,57.95
2022-12-11T02:31:59.018Z,58.42
2022-12-11T02:34:40.442Z,58.33
2022-12-11T02:37:16.565Z,58.68
2022-12-11T02:39:49.008Z,58.58
2022-12-11T02:42:19.685Z,58.75
2022-12-11T02:44:50.680Z,58.71
2022-12-11T02:47:21.084Z,58.58
2022-12-11T02:49:52.143Z,58.47
2022-12-11T02:52:25.752Z,58.19
2022-12-11T02:54:58.091Z,57.70
2022-12-11T02:57:42.677Z,57.50
2022-12-11T03:00:11.684Z,58.26
2022-12-11T03:02:41.195Z,58.25
2022-12-11T03:05:12.609Z,58.08
2022-12-11T03:07:43.836Z,58.56
2022-12-11T03:10:17.493Z,59.22
2022-12-11T03:12:53.358Z,59.12
2022-12-11T03:15:27.686Z,59.63
2022-12-11T03:18:36.354Z,59.53
2022-12-11T03:21:16.602Z,60.04
2022-12-11T03:24:03.111Z,59.89
2022-12-11T03:26:39.541Z,60.08
2022-12-11T03:29:35.203Z,60.73
2022-12-11T03:32:21.472Z,61.06
2022-12-11T03:35:00.964Z,60.88
2022-12-11T03:37:34.171Z,60.90
2022-12-11T03:40:10.662Z,60.70
2022-12-11T03:42:41.931Z,60.42
2022-12-11T03:45:11.482Z,60.98
2022-12-11T03:47:42.287Z,60.63
2022-12-11T03:50:13.977Z,60.87
2022-12-11T03:52:46.205Z,61.18
2022-12-11T03:55:17.404Z,61.86
2022-12-11T03:57:45.142Z,62.02
2022-12-11T04:00:18.106Z,61.94
2022-12-11T04:02:46.583Z,61.62
2022-12-11T04:05:14.514Z,61.85
2022-12-11T04:07:41.933Z,61.65
2022-12-11T04:10:10.094Z,61.37
2022-12-11T04:12:38.274Z,61.30
2022-12-11T04:15:06.541Z,61.53
2022-12-11T04:17:37.117Z,60.95
2022-12-11T04:20:06.408Z,60.94
2022-12-11T04:22:33.542Z,60.68
2022-12-11T04:25:02.701Z,60.62
2022-12-11T04:27:30.853Z,60.47
2022-12-11T04:29:58.736Z,60.48
2022-12-11T04:32:26.913Z,60.24
2022-12-11T04:34:59.032Z,59.99
2022-12-11T04:37:28.825Z,60.00
2022-12-11T04:39:56.055Z,59.99
2022-12-11T04:42:23.450Z,60.37
2022-12-11T04:44:54.692Z,60.75
2022-12-11T04:47:22.045Z,60.61
2022-12-11T04:49:49.336Z,60.25
2022-12-11T04:52:18.125Z,60.25
2022-12-11T04:54:46.265Z,59.97
2022-12-11T04:57:15.110Z,59.72
2022-12-11T04:59:42.329Z,60.03
2022-12-11T05:02:09.616Z,59.44
2022-12-11T05:04:36.838Z,60.09
2022-12-11T05:07:04.236Z,59.73
2022-12-11T05:09:31.523Z,59.55
2022-12-11T05:11:58.675Z,59.84
2022-12-11T05:14:25.904Z,59.90
2022-12-11T05:16:53.376Z,59.97
2022-12-11T05:19:20.528Z,60.01
2022-12-11T05:21:47.700Z,59.66
2022-12-11T05:24:14.850Z,59.97
2022-12-11T05:26:42.233Z,59.94
2022-12-11T05:29:09.553Z,59.93
2022-12-11T05:31:36.878Z,59.44
2022-12-11T05:34:04.126Z,60.19
2022-12-11T05:36:34.879Z,60.21
2022-12-11T05:39:05.063Z,59.89
2022-12-11T05:41:33.946Z,59.91
2022-12-11T05:44:01.389Z,59.54
2022-12-11T05:46:30.828Z,60.30
2022-12-11T05:49:01.894Z,59.94
2022-12-11T05:51:31.115Z,60.20
2022-12-11T05:53:58.605Z,60.73
2022-12-11T05:56:32.772Z,60.82
2022-12-11T05:59:01.627Z,60.94
2022-12-11T06:01:42.676Z,60.94
2022-12-11T06:04:12.482Z,60.11
2022-12-11T06:06:41.098Z,59.29
2022-12-11T06:09:08.645Z,58.97
2022-12-11T06:11:36.515Z,58.19
2022-12-11T06:14:04.513Z,58.00
2022-12-11T06:16:32.741Z,57.86
2022-12-11T06:19:00.153Z,57.79
2022-12-11T06:21:31.330Z,57.82
2022-12-11T06:24:01.256Z,58.16
2022-12-11T06:26:30.179Z,57.88
2022-12-11T06:28:57.831Z,57.84
2022-12-11T06:31:25.685Z,57.98
2022-12-11T06:33:53.444Z,57.76
2022-12-11T06:36:24.457Z,57.59
2022-12-11T06:38:59.976Z,57.75
2022-12-11T06:41:33.832Z,57.56
2022-12-11T06:44:02.877Z,57.50
2022-12-11T06:46:51.440Z,57.30
2022-12-11T06:49:18.734Z,57.34
2022-12-11T06:51:56.875Z,57.56
2022-12-11T06:57:47.742Z,58.03
2022-12-11T07:00:48.258Z,58.21
2022-12-11T07:03:18.867Z,58.25
2022-12-11T07:05:46.009Z,58.39
2022-12-11T07:08:13.215Z,58.55
2022-12-11T07:10:40.580Z,58.30
2022-12-11T07:13:26.547Z,58.63
2022-12-11T07:16:00.782Z,58.19
2022-12-11T07:18:28.748Z,58.33
2022-12-11T07:20:59.442Z,57.56
2022-12-11T07:23:28.196Z,57.73
2022-12-11T07:25:56.947Z,58.00
2022-12-11T07:28:24.751Z,58.01
2022-12-11T07:30:51.937Z,58.04
2022-12-11T07:33:19.161Z,57.82
2022-12-11T07:35:46.397Z,57.82
2022-12-11T07:38:13.638Z,57.76
2022-12-11T07:40:40.878Z,57.74
2022-12-11T07:43:08.126Z,57.74
2022-12-11T07:45:35.848Z,57.65
2022-12-11T07:48:03.970Z,56.85
2022-12-11T07:50:35.129Z,56.92
2022-12-11T07:53:05.350Z,56.90
2022-12-11T07:55:33.003Z,56.75
2022-12-11T07:58:00.193Z,57.31
2022-12-11T08:00:27.326Z,56.98
2022-12-11T08:02:54.603Z,57.11
2022-12-11T08:05:21.795Z,56.72
2022-12-11T08:07:49.060Z,56.78
2022-12-11T08:10:16.283Z,56.60
2022-12-11T08:12:43.685Z,56.60
2022-12-11T08:15:11.719Z,56.81
2022-12-11T08:17:40.290Z,56.94
2022-12-11T08:20:08.436Z,56.96
2022-12-11T08:22:35.795Z,57.42
2022-12-11T08:25:03.220Z,57.15
2022-12-11T08:27:30.462Z,56.60
2022-12-11T08:29:57.769Z,57.09
2022-12-11T08:32:24.941Z,57.13
2022-12-11T08:34:52.262Z,56.79
2022-12-11T08:37:20.283Z,56.75
2022-12-11T08:39:47.536Z,56.99
2022-12-11T08:42:14.839Z,57.23
2022-12-11T08:44:42.369Z,57.08
2022-12-11T08:47:09.619Z,57.08
2022-12-11T08:49:37.015Z,56.73
2022-12-11T08:52:05.830Z,57.03
2022-12-11T08:54:33.317Z,57.15
2022-12-11T08:57:00.544Z,56.74
2022-12-11T08:59:27.897Z,57.03
2022-12-11T09:01:56.349Z,57.28
2022-12-11T09:04:24.093Z,56.97
2022-12-11T09:06:51.331Z,57.47
2022-12-11T09:09:18.856Z,57.56
2022-12-11T09:11:46.079Z,57.35
2022-12-11T09:14:13.246Z,57.74
2022-12-11T09:16:41.001Z,57.78
2022-12-11T09:19:13.990Z,57.46
2022-12-11T09:21:43.056Z,58.24
2022-12-11T09:24:12.745Z,58.61
2022-12-11T09:26:40.909Z,58.62
2022-12-11T09:29:12.976Z,58.17
2022-12-11T09:31:41.001Z,57.54
2022-12-11T09:34:12.349Z,57.69
2022-12-11T09:36:41.556Z,57.17
2022-12-11T09:39:11.869Z,56.25
2022-12-11T09:42:13.003Z,56.52
2022-12-11T09:45:00.134Z,55.72
2022-12-11T09:48:00.631Z,55.69
2022-12-11T09:50:34.315Z,55.33
2022-12-11T09:53:23.814Z,54.58
2022-12-11T09:56:16.546Z,54.97
2022-12-11T09:59:18.552Z,54.72
2022-12-11T10:02:24.725Z,55.86
2022-12-11T10:05:20.806Z,55.65
2022-12-11T10:08:06.057Z,55.90
2022-12-11T10:10:47.371Z,56.54
2022-12-11T10:13:43.200Z,56.58
2022-12-11T10:16:13.149Z,55.70
2022-12-11T10:18:42.041Z,55.92
2022-12-11T10:21:12.219Z,55.75
2022-12-11T10:24:02.746Z,55.90
2022-12-11T10:26:30.374Z,55.58
2022-12-11T10:29:02.746Z,54.76
2022-12-11T10:31:52.520Z,54.25
2022-12-11T10:34:34.374Z,54.50
2022-12-11T10:37:02.318Z,54.37
2022-12-11T10:39:30.177Z,54.88
2022-12-11T10:41:58.233Z,54.82
2022-12-11T10:44:30.638Z,54.96
2022-12-11T10:47:15.230Z,54.94
2022-12-11T10:49:58.173Z,54.86
2022-12-11T10:52:35.555Z,54.47
2022-12-11T10:55:16.781Z,54.91
2022-12-11T10:57:44.585Z,55.15
2022-12-11T11:00:36.606Z,54.71
2022-12-11T11:03:20.007Z,54.94
2022-12-11T11:05:49.503Z,55.42
2022-12-11T11:08:21.607Z,54.93
2022-12-11T11:10:58.565Z,54.34
2022-12-11T11:13:29.952Z,54.20
2022-12-11T11:16:08.635Z,54.01
2022-12-11T11:18:36.502Z,54.35
2022-12-11T11:21:04.017Z,53.74
2022-12-11T11:23:31.629Z,53.60
2022-12-11T11:26:01.988Z,52.91
2022-12-11T11:28:40.686Z,53.14
2022-12-11T11:31:14.052Z,53.58
2022-12-11T11:34:06.071Z,53.44
2022-12-11T11:36:37.252Z,53.93
2022-12-11T11:39:21.434Z,53.66
2022-12-11T11:42:15.407Z,54.03
2022-12-11T11:45:01.481Z,54.49
2022-12-11T11:47:40.620Z,54.38
2022-12-11T11:50:26.674Z,54.47
2022-12-11T11:53:11.995Z,54.69
2022-12-11T11:56:38.217Z,54.46
2022-12-11T11:59:11.795Z,54.29
2022-12-11T12:01:43.420Z,54.57
2022-12-11T12:04:12.146Z,54.30
2022-12-11T12:07:23.211Z,53.59
2022-12-11T12:10:22.272Z,53.76
2022-12-11T12:13:48.139Z,53.45
2022-12-11T12:16:52.312Z,53.75
2022-12-11T12:19:35.903Z,54.13
2022-12-11T12:22:45.712Z,53.69
2022-12-11T12:25:26.712Z,54.22
2022-12-11T12:28:21.276Z,54.10
2022-12-11T12:31:23.781Z,53.92
2022-12-11T12:34:15.218Z,53.88
2022-12-11T12:37:11.446Z,54.03
2022-12-11T12:40:09.865Z,54.18
2022-12-11T12:43:28.731Z,54.41
2022-12-11T12:46:11.739Z,54.39
2022-12-11T12:48:39.874Z,54.50
2022-12-11T12:51:13.234Z,54.34
2022-12-11T12:53:58.454Z,54.25
2022-12-11T12:56:29.604Z,54.34
2022-12-11T12:58:57.777Z,53.92
2022-12-11T13:01:30.181Z,53.57
2022-12-11T13:04:20.758Z,53.48
2022-12-11T13:06:54.951Z,53.81
2022-12-11T13:09:26.592Z,53.55
2022-12-11T13:11:57.038Z,53.18
2022-12-11T13:14:33.464Z,54.16
2022-12-11T13:17:34.773Z,54.36
2022-12-11T13:20:20.200Z,54.29
2022-12-11T13:22:54.064Z,54.19
2022-12-11T13:25:31.034Z,54.65
2022-12-11T13:28:19.534Z,54.86
2022-12-11T13:31:02.605Z,54.65
2022-12-11T13:33:30.597Z,55.22
2022-12-11T13:36:24.072Z,55.33
2022-12-11T13:39:25.981Z,54.92
2022-12-11T13:41:59.773Z,54.47
2022-12-11T13:44:31.176Z,55.16
2022-12-11T13:47:03.046Z,55.58
2022-12-11T13:49:40.757Z,55.89
2022-12-11T13:52:08.193Z,56.07
2022-12-11T13:54:36.528Z,55.80
2022-12-11T13:57:19.920Z,55.75
2022-12-11T13:59:54.129Z,55.77
2022-12-11T14:02:32.650Z,56.11
2022-12-11T14:05:07.529Z,55.71
2022-12-11T14:07:42.200Z,55.90
2022-12-11T14:10:19.827Z,55.82
2022-12-11T14:12:53.283Z,56.49
2022-12-11T14:15:21.214Z,56.01
2022-12-11T14:17:51.910Z,56.15
2022-12-11T14:20:32.705Z,55.72
2022-12-11T14:23:23.216Z,55.01
2022-12-11T14:26:22.878Z,54.71
2022-12-11T14:28:50.931Z,55.02
2022-12-11T14:31:44.509Z,55.20
2022-12-11T14:34:37.449Z,55.39
2022-12-11T14:37:08.173Z,55.53
2022-12-11T14:39:46.854Z,55.06
2022-12-11T14:42:28.942Z,55.24
2022-12-11T14:45:02.973Z,55.23
2022-12-11T14:47:42.279Z,55.37
2022-12-11T14:50:23.599Z,55.12
2022-12-11T14:53:03.970Z,55.14
2022-12-11T14:55:36.145Z,55.30
2022-12-11T14:58:13.819Z,55.70
2022-12-11T15:00:41.184Z,55.18
2022-12-11T15:03:17.507Z,55.06
2022-12-11T15:05:59.281Z,55.37
2022-12-11T15:08:29.249Z,54.93
2022-12-11T15:11:05.187Z,54.84
2022-12-11T15:13:36.617Z,55.04
2022-12-11T15:16:12.268Z,55.13
2022-12-11T15:18:45.266Z,54.77
2022-12-11T15:21:13.516Z,54.69
2022-12-11T15:24:00.412Z,54.41
2022-12-11T15:26:45.327Z,54.84
2022-12-11T15:29:37.758Z,55.58
2022-12-11T15:32:22.375Z,55.66
2022-12-11T15:34:59.995Z,56.12
2022-12-11T15:37:34.066Z,55.85
2022-12-11T15:40:04.992Z,55.77
2022-12-11T15:42:42.168Z,55.97
2022-12-11T15:45:19.308Z,54.93
2022-12-11T15:47:48.437Z,54.74
2022-12-11T15:50:28.747Z,54.99
2022-12-11T15:52:57.848Z,54.94
2022-12-11T15:55:29.495Z,54.75
2022-12-11T15:58:02.724Z,54.81
2022-12-11T16:00:30.643Z,54.83
2022-12-11T16:02:58.987Z,54.95
2022-12-11T16:05:27.412Z,54.86
2022-12-11T16:07:54.803Z,54.92
2022-12-11T16:10:23.955Z,55.37
2022-12-11T16:12:51.252Z,54.85
2022-12-11T16:15:23.457Z,55.18
2022-12-11T16:18:00.322Z,55.11
2022-12-11T16:20:27.658Z,55.52
2022-12-11T16:22:54.998Z,55.47
2022-12-11T16:25:22.238Z,55.48
2022-12-11T16:27:49.552Z,55.68
2022-12-11T16:30:16.821Z,55.92
2022-12-11T16:32:44.588Z,55.77
2022-12-11T16:35:12.359Z,56.04
2022-12-11T16:37:39.931Z,55.85
2022-12-11T16:40:09.965Z,55.60
2022-12-11T16:42:38.671Z,55.70
2022-12-11T16:45:14.157Z,55.62
2022-12-11T16:47:43.014Z,55.55
2022-12-11T16:50:12.579Z,55.74
2022-12-11T16:52:42.390Z,55.64
2022-12-11T16:55:13.488Z,55.67
2022-12-11T16:57:42.884Z,55.41
2022-12-11T17:00:13.667Z,55.34
2022-12-11T17:02:41.002Z,55.42
2022-12-11T17:05:09.287Z,55.42
2022-12-11T17:07:40.565Z,55.37
2022-12-11T17:10:09.158Z,55.37
2022-12-11T17:12:36.605Z,55.46
2022-12-11T17:15:04.605Z,55.42
2022-12-11T17:17:32.141Z,55.50
2022-12-11T17:19:59.419Z,55.38
2022-12-11T17:22:27.337Z,55.55
2022-12-11T17:25:00.425Z,55.50
2022-12-11T17:27:27.785Z,55.48
2022-12-11T17:29:55.836Z,55.43
2022-12-11T17:32:23.030Z,55.85
2022-12-11T17:34:51.090Z,55.76
2022-12-11T17:37:18.968Z,55.88
2022-12-11T17:39:46.209Z,55.77
2022-12-11T17:42:13.750Z,55.65
2022-12-11T17:44:40.899Z,55.55
2022-12-11T17:47:11.167Z,55.69
2022-12-11T17:49:40.434Z,55.56
2022-12-11T17:52:08.443Z,55.43
2022-12-11T17:54:35.767Z,55.23
2022-12-11T17:57:02.971Z,55.29
2022-12-11T17:59:30.201Z,55.27
2022-12-11T18:01:57.478Z,55.26
2022-12-11T18:04:25.330Z,54.79
2022-12-11T18:06:52.730Z,54.58
2022-12-11T18:09:19.921Z,54.26
2022-12-11T18:11:47.160Z,54.62
2022-12-11T18:14:17.486Z,54.59
2022-12-11T18:16:45.070Z,54.04
2022-12-11T18:19:12.975Z,54.15
2022-12-11T18:21:44.084Z,54.04
2022-12-11T18:24:11.867Z,54.08
2022-12-11T18:26:39.018Z,53.84
2022-12-11T18:29:06.297Z,53.96
2022-12-11T18:31:48.579Z,54.07
2022-12-11T18:34:16.691Z,53.97
2022-12-11T18:36:44.564Z,53.98
2022-12-11T18:39:11.896Z,53.76
2022-12-11T18:41:39.157Z,53.55
2022-12-11T18:44:09.895Z,53.58
2022-12-11T18:46:38.964Z,53.46
2022-12-11T18:49:07.012Z,53.51
2022-12-11T18:51:34.578Z,53.06
2022-12-11T18:54:06.099Z,53.35
2022-12-11T18:56:33.528Z,53.38
2022-12-11T18:59:01.345Z,53.34
2022-12-11T19:01:30.112Z,53.50
2022-12-11T19:04:05.295Z,53.75
2022-12-11T19:06:39.276Z,53.45
2022-12-11T19:09:17.125Z,53.53
2022-12-11T19:11:49.611Z,53.14
2022-12-11T19:14:16.993Z,53.13
2022-12-11T19:16:45.151Z,52.53
2022-12-11T19:19:17.577Z,52.87
2022-12-11T19:21:46.208Z,53.15
2022-12-11T19:24:18.365Z,53.26
2022-12-11T19:26:46.317Z,52.43
2022-12-11T19:29:28.262Z,52.34
2022-12-11T19:31:56.560Z,52.25
2022-12-11T19:34:24.619Z,51.77
2022-12-11T19:36:52.171Z,52.05
2022-12-11T19:39:19.520Z,51.76
2022-12-11T19:41:47.368Z,52.13
2022-12-11T19:44:14.804Z,52.10
2022-12-11T19:46:42.351Z,52.30
2022-12-11T19:49:11.780Z,52.46
2022-12-11T19:51:42.335Z,51.81
2022-12-11T19:54:14.980Z,52.16
2022-12-11T19:56:43.164Z,52.31
2022-12-11T19:59:16.231Z,51.63
2022-12-11T20:01:45.534Z,52.00
2022-12-11T20:04:15.432Z,51.84
2022-12-11T20:06:45.398Z,52.26
2022-12-11T20:09:14.236Z,52.08
2022-12-11T20:11:44.220Z,51.77
2022-12-11T20:14:21.440Z,52.06
2022-12-11T20:19:36.995Z,52.24
2022-12-11T20:22:04.288Z,52.07
2022-12-11T20:24:31.484Z,52.25
2022-12-11T20:26:58.689Z,52.21
2022-12-11T20:29:25.935Z,51.82
2022-12-11T20:31:53.351Z,51.76
2022-12-11T20:34:20.818Z,51.08
2022-12-11T20:36:49.302Z,50.85
2022-12-11T20:39:16.530Z,51.22
2022-12-11T20:41:43.719Z,51.05
2022-12-11T20:44:10.969Z,51.83
2022-12-11T20:46:38.153Z,51.93
2022-12-11T20:49:05.314Z,51.60
2022-12-11T20:51:32.481Z,51.79
2022-12-11T20:53:59.801Z,52.10
2022-12-11T20:56:31.557Z,52.40
2022-12-11T20:59:00.274Z,52.28
2022-12-11T21:01:32.035Z,52.55
2022-12-11T21:04:00.722Z,52.09
2022-12-11T21:06:35.246Z,51.80
2022-12-11T21:09:12.152Z,51.25
2022-12-11T21:11:40.166Z,51.88
2022-12-11T21:14:07.518Z,51.14
2022-12-11T21:16:37.389Z,51.41
2022-12-11T21:19:05.836Z,51.89
2022-12-11T21:21:36.042Z,51.79
2022-12-11T21:24:04.116Z,52.15
2022-12-11T21:26:31.303Z,51.35
2022-12-11T21:28:58.905Z,51.00
2022-12-11T21:31:26.561Z,51.59
2022-12-11T21:33:54.198Z,51.65
2022-12-11T21:36:21.455Z,51.28
2022-12-11T21:38:49.034Z,51.84
2022-12-11T21:41:21.778Z,51.80
2022-12-11T21:46:40.120Z,52.15
2022-12-11T21:49:07.827Z,52.51
2022-12-11T21:51:42.678Z,52.45
2022-12-11T21:54:18.093Z,52.91
2022-12-11T21:56:46.547Z,52.90
2022-12-11T21:59:14.578Z,52.25
2022-12-11T22:01:44.817Z,52.07
2022-12-11T22:04:14.208Z,51.98
2022-12-11T22:06:41.715Z,51.94
2022-12-11T22:09:09.600Z,51.59
2022-12-11T22:11:36.855Z,51.63
2022-12-11T22:14:04.650Z,51.14
2022-12-11T22:16:32.456Z,51.08
2022-12-11T22:19:00.434Z,50.86
2022-12-11T22:21:27.767Z,50.24
2022-12-11T22:23:55.321Z,50.26
2022-12-11T22:26:26.272Z,50.14
2022-12-11T22:28:55.105Z,50.29
2022-12-11T22:31:25.946Z,49.71
2022-12-11T22:33:54.882Z,49.67
2022-12-11T22:36:27.173Z,49.16
2022-12-11T22:38:55.266Z,49.44
2022-12-11T22:41:28.370Z,49.30
2022-12-11T22:43:57.116Z,48.90
2022-12-11T22:46:29.769Z,48.82
2022-12-11T22:48:58.766Z,49.05
2022-12-11T22:51:26.208Z,49.04
2022-12-11T22:53:53.511Z,48.96
2022-12-11T22:56:20.884Z,49.18
2022-12-11T22:58:48.273Z,48.62
2022-12-11T23:01:23.478Z,48.96
2022-12-11T23:03:51.751Z,48.55
2022-12-11T23:06:23.117Z,48.98
2022-12-11T23:08:50.807Z,49.02
2022-12-11T23:11:29.954Z,49.54
2022-12-11T23:13:57.937Z,49.08
2022-12-11T23:16:27.024Z,48.66
2022-12-11T23:18:56.855Z,49.21
2022-12-11T23:21:26.008Z,48.93
2022-12-11T23:23:54.902Z,49.04
2022-12-11T23:26:22.866Z,49.62
2022-12-11T23:28:50.595Z,49.54
2022-12-11T23:31:18.236Z,48.96
2022-12-11T23:33:45.864Z,49.05
2022-12-11T23:36:13.682Z,49.06
2022-12-11T23:38:41.523Z,48.78
2022-12-11T23:41:12.107Z,48.60
2022-12-11T23:43:40.612Z,48.51
2022-12-11T23:46:16.008Z,48.51
2022-12-11T23:48:43.870Z,48.24
2022-12-11T23:51:16.431Z,48.16
2022-12-11T23:53:44.537Z,48.01
2022-12-11T23:56:22.932Z,47.60
2022-12-11T23:58:51.245Z,47.53
